createdAt,value
2022-10-26T00:00:32.351Z,11.32
2022-10-26T00:01:32.446Z,11.28
2022-10-26T00:02:32.377Z,11.35
2022-10-26T00:03:32.339Z,11.37
2022-10-26T00:04:32.336Z,11.35
2022-10-26T00:05:32.343Z,11.37
2022-10-26T00:06:32.334Z,11.29
2022-10-26T00:07:32.384Z,11.29
2022-10-26T00:08:32.345Z,11.25
2022-10-26T00:09:32.335Z,11.19
2022-10-26T00:10:32.332Z,11.17
2022-10-26T00:11:32.356Z,11.22
2022-10-26T00:12:32.334Z,11.15
2022-10-26T00:13:32.348Z,11.24
2022-10-26T00:14:32.355Z,11.14
2022-10-26T00:15:32.323Z,11.17
2022-10-26T00:16:32.339Z,11.18
2022-10-26T00:17:32.339Z,11.21
2022-10-26T00:18:32.338Z,11.15
2022-10-26T00:19:32.320Z,11.25
2022-10-26T00:20:32.344Z,11.19
2022-10-26T00:21:32.334Z,11.18
2022-10-26T00:22:32.333Z,11.21
2022-10-26T00:23:32.319Z,11.21
2022-10-26T00:24:32.317Z,11.19
2022-10-26T00:25:32.327Z,11.19
2022-10-26T00:26:32.314Z,11.18
2022-10-26T00:27:32.310Z,11.22
2022-10-26T00:28:32.324Z,11.09
2022-10-26T00:29:32.308Z,11.06
2022-10-26T00:30:32.327Z,11.09
2022-10-26T00:31:32.320Z,10.99
2022-10-26T00:32:32.370Z,11.04
2022-10-26T00:33:32.315Z,11.07
2022-10-26T00:34:32.330Z,11.15
2022-10-26T00:35:45.054Z,10.96
2022-10-26T00:36:32.308Z,10.96
2022-10-26T00:37:32.332Z,10.96
2022-10-26T00:38:32.305Z,10.97
2022-10-26T00:39:32.310Z,10.94
2022-10-26T00:40:32.306Z,11.04
2022-10-26T00:41:32.315Z,10.96
2022-10-26T00:42:32.321Z,11.11
2022-10-26T00:43:32.333Z,11.00
2022-10-26T00:44:36.149Z,11.09
2022-10-26T00:45:32.293Z,11.14
2022-10-26T00:46:32.306Z,11.10
2022-10-26T00:47:32.302Z,11.21
2022-10-26T00:48:32.320Z,11.03
2022-10-26T00:49:32.298Z,11.18
2022-10-26T00:50:32.307Z,11.17
2022-10-26T00:51:39.944Z,11.18
2022-10-26T00:52:32.301Z,11.18
2022-10-26T00:53:32.295Z,11.17
2022-10-26T00:54:32.290Z,11.14
2022-10-26T00:55:32.290Z,11.10
2022-10-26T00:56:32.311Z,11.06
2022-10-26T00:57:32.342Z,11.14
2022-10-26T00:58:32.303Z,11.04
2022-10-26T00:59:32.278Z,11.14
2022-10-26T01:00:32.297Z,11.11
2022-10-26T01:01:32.373Z,11.09
2022-10-26T01:02:32.300Z,11.11
2022-10-26T01:03:32.331Z,11.09
2022-10-26T01:04:32.306Z,11.11
2022-10-26T01:05:32.278Z,11.15
2022-10-26T01:06:32.280Z,11.09
2022-10-26T01:07:32.282Z,11.17
2022-10-26T01:08:32.271Z,11.07
2022-10-26T01:09:32.295Z,11.15
2022-10-26T01:10:32.264Z,11.17
2022-10-26T01:11:32.265Z,11.15
2022-10-26T01:12:32.275Z,11.14
2022-10-26T01:13:32.320Z,11.14
2022-10-26T01:14:32.320Z,11.15
2022-10-26T01:15:32.264Z,11.17
2022-10-26T01:16:32.282Z,11.18
2022-10-26T01:17:32.262Z,11.10
2022-10-26T01:18:32.283Z,11.04
2022-10-26T01:19:32.278Z,11.06
2022-10-26T01:20:32.264Z,10.99
2022-10-26T01:21:32.280Z,10.92
2022-10-26T01:22:32.250Z,10.94
2022-10-26T01:23:32.255Z,11.00
2022-10-26T01:24:32.270Z,10.96
2022-10-26T01:25:32.247Z,10.92
2022-10-26T01:26:32.258Z,10.94
2022-10-26T01:27:32.240Z,10.97
2022-10-26T01:28:32.254Z,11.07
2022-10-26T01:29:32.266Z,11.09
2022-10-26T01:30:32.258Z,10.99
2022-10-26T01:31:32.236Z,10.89
2022-10-26T01:32:32.245Z,10.97
2022-10-26T01:33:32.250Z,10.88
2022-10-26T01:34:32.271Z,10.84
2022-10-26T01:35:32.242Z,10.81
2022-10-26T01:37:32.241Z,10.81
2022-10-26T01:38:32.232Z,10.84
2022-10-26T01:39:32.234Z,10.76
2022-10-26T01:40:32.251Z,10.82
2022-10-26T01:41:32.237Z,10.86
2022-10-26T01:42:32.251Z,10.81
2022-10-26T01:43:32.241Z,10.74
2022-10-26T01:44:32.233Z,10.79
2022-10-26T01:45:32.228Z,10.78
2022-10-26T01:46:32.234Z,10.79
2022-10-26T01:47:32.238Z,10.78
2022-10-26T01:48:32.228Z,10.82
2022-10-26T01:49:32.215Z,10.78
2022-10-26T01:50:32.214Z,10.78
2022-10-26T01:51:32.236Z,10.68
2022-10-26T01:52:32.226Z,10.76
2022-10-26T01:53:32.234Z,10.78
2022-10-26T01:54:32.253Z,10.79
2022-10-26T01:55:32.211Z,10.74
2022-10-26T01:56:32.222Z,10.78
2022-10-26T01:57:32.222Z,10.79
2022-10-26T01:58:32.264Z,10.84
2022-10-26T01:59:32.217Z,10.70
2022-10-26T02:00:32.201Z,10.78
2022-10-26T02:01:32.274Z,10.79
2022-10-26T02:02:32.209Z,10.79
2022-10-26T02:03:32.260Z,10.70
2022-10-26T02:04:32.220Z,10.76
2022-10-26T02:05:32.203Z,10.74
2022-10-26T02:06:32.194Z,10.73
2022-10-26T02:07:32.230Z,10.63
2022-10-26T02:08:32.193Z,10.64
2022-10-26T02:09:32.197Z,10.70
2022-10-26T02:10:32.205Z,10.66
2022-10-26T02:11:32.208Z,10.67
2022-10-26T02:12:32.198Z,10.68
2022-10-26T02:13:32.202Z,10.71
2022-10-26T02:14:32.181Z,10.68
2022-10-26T02:15:32.184Z,10.60
2022-10-26T02:16:32.197Z,10.61
2022-10-26T02:17:32.189Z,10.64
2022-10-26T02:18:32.184Z,10.61
2022-10-26T02:19:32.200Z,10.51
2022-10-26T02:20:32.173Z,10.63
2022-10-26T02:21:32.190Z,10.59
2022-10-26T02:22:32.175Z,10.51
2022-10-26T02:23:32.187Z,10.56
2022-10-26T02:24:32.199Z,10.47
2022-10-26T02:25:32.203Z,10.41
2022-10-26T02:26:32.183Z,10.41
2022-10-26T02:27:32.172Z,10.30
2022-10-26T02:28:32.171Z,10.30
2022-10-26T02:29:32.166Z,10.38
2022-10-26T02:30:32.177Z,10.34
2022-10-26T02:31:32.172Z,10.32
2022-10-26T02:32:32.175Z,10.32
2022-10-26T02:33:32.174Z,10.27
2022-10-26T02:34:32.154Z,10.32
2022-10-26T02:35:32.185Z,10.33
2022-10-26T02:36:32.169Z,10.29
2022-10-26T02:37:32.185Z,10.29
2022-10-26T02:38:32.166Z,10.26
2022-10-26T02:39:32.158Z,10.30
2022-10-26T02:40:32.143Z,10.27
2022-10-26T02:41:32.145Z,10.27
2022-10-26T02:42:32.154Z,10.33
2022-10-26T02:44:32.162Z,10.27
2022-10-26T02:45:32.175Z,10.30
2022-10-26T02:46:32.140Z,10.20
2022-10-26T02:47:32.141Z,10.30
2022-10-26T02:48:32.156Z,10.26
2022-10-26T02:49:32.154Z,10.30
2022-10-26T02:50:32.130Z,10.27
2022-10-26T02:51:32.144Z,10.32
2022-10-26T02:52:32.125Z,10.25
2022-10-26T02:53:32.146Z,10.18
2022-10-26T02:54:32.123Z,10.17
2022-10-26T02:55:32.141Z,10.26
2022-10-26T02:56:32.145Z,10.18
2022-10-26T02:57:32.127Z,10.23
2022-10-26T02:58:32.132Z,10.17
2022-10-26T02:59:32.121Z,10.22
2022-10-26T03:00:32.131Z,10.23
2022-10-26T03:01:32.179Z,10.18
2022-10-26T03:02:32.151Z,10.14
2022-10-26T03:03:34.021Z,10.18
2022-10-26T03:04:32.121Z,10.18
2022-10-26T03:05:32.139Z,10.14
2022-10-26T03:06:32.121Z,10.12
2022-10-26T03:07:32.133Z,10.15
2022-10-26T03:08:32.157Z,10.17
2022-10-26T03:09:32.135Z,10.18
2022-10-26T03:10:32.178Z,10.18
2022-10-26T03:11:35.739Z,10.08
2022-10-26T03:12:32.130Z,10.09
2022-10-26T03:13:32.139Z,10.04
2022-10-26T03:14:32.156Z,10.18
2022-10-26T03:15:32.167Z,10.02
2022-10-26T03:16:32.140Z,10.08
2022-10-26T03:17:32.098Z,10.11
2022-10-26T03:18:32.135Z,10.14
2022-10-26T03:19:32.126Z,10.14
2022-10-26T03:20:32.101Z,10.04
2022-10-26T03:21:32.094Z,10.09
2022-10-26T03:22:32.086Z,10.18
2022-10-26T03:23:32.098Z,10.15
2022-10-26T03:24:32.096Z,10.18
2022-10-26T03:25:32.116Z,10.20
2022-10-26T03:26:32.075Z,10.18
2022-10-26T03:27:32.115Z,10.15
2022-10-26T03:28:32.072Z,10.26
2022-10-26T03:29:32.134Z,10.17
2022-10-26T03:30:32.086Z,10.18
2022-10-26T03:31:32.090Z,10.15
2022-10-26T03:32:32.068Z,10.25
2022-10-26T03:33:32.086Z,10.18
2022-10-26T03:34:32.102Z,10.18
2022-10-26T03:35:32.072Z,10.20
2022-10-26T03:36:32.084Z,10.01
2022-10-26T03:37:32.060Z,10.05
2022-10-26T03:38:32.068Z,10.02
2022-10-26T03:39:32.053Z,10.05
2022-10-26T03:40:32.071Z,10.05
2022-10-26T03:41:32.066Z,10.09
2022-10-26T03:42:32.079Z,10.05
2022-10-26T03:43:32.046Z,9.99
2022-10-26T03:44:32.074Z,9.96
2022-10-26T03:45:32.062Z,9.96
2022-10-26T03:46:32.069Z,9.91
2022-10-26T03:47:32.057Z,9.96
2022-10-26T03:48:32.052Z,9.99
2022-10-26T03:49:32.065Z,10.01
2022-10-26T03:50:32.067Z,9.97
2022-10-26T03:51:32.039Z,10.01
2022-10-26T03:52:32.037Z,10.02
2022-10-26T03:53:32.047Z,10.07
2022-10-26T03:54:32.029Z,10.04
2022-10-26T03:55:32.033Z,10.01
2022-10-26T03:56:32.070Z,10.08
2022-10-26T03:57:32.032Z,10.14
2022-10-26T03:58:32.029Z,10.12
2022-10-26T03:59:32.038Z,10.09
2022-10-26T04:00:32.031Z,10.17
2022-10-26T04:01:32.122Z,10.20
2022-10-26T04:02:32.048Z,10.17
2022-10-26T04:03:32.048Z,10.17
2022-10-26T04:04:32.087Z,10.25
2022-10-26T04:05:32.014Z,10.18
2022-10-26T04:06:32.058Z,10.17
2022-10-26T04:07:32.009Z,10.27
2022-10-26T04:08:32.031Z,10.14
2022-10-26T04:09:32.048Z,10.12
2022-10-26T04:10:32.030Z,10.04
2022-10-26T04:11:32.036Z,10.07
2022-10-26T04:12:32.034Z,9.99
2022-10-26T04:13:32.036Z,10.01
2022-10-26T04:14:32.023Z,10.05
2022-10-26T04:15:32.006Z,10.11
2022-10-26T04:16:33.419Z,10.09
2022-10-26T04:17:31.998Z,10.04
2022-10-26T04:18:32.012Z,10.07
2022-10-26T04:19:32.017Z,10.09
2022-10-26T04:20:32.006Z,10.09
2022-10-26T04:21:32.007Z,10.05
2022-10-26T04:22:31.996Z,10.15
2022-10-26T04:23:32.003Z,10.09
2022-10-26T04:24:32.021Z,10.09
2022-10-26T04:25:33.232Z,10.08
2022-10-26T04:26:31.995Z,10.12
2022-10-26T04:27:31.990Z,10.12
2022-10-26T04:28:32.032Z,10.14
2022-10-26T04:29:32.043Z,10.18
2022-10-26T04:30:31.991Z,10.17
2022-10-26T04:31:32.129Z,10.12
2022-10-26T04:32:31.990Z,10.17
2022-10-26T04:33:32.004Z,10.18
2022-10-26T04:34:31.996Z,10.17
2022-10-26T04:35:31.989Z,10.18
2022-10-26T04:36:31.974Z,10.18
2022-10-26T04:37:31.980Z,10.18
2022-10-26T04:38:31.969Z,10.15
2022-10-26T04:39:31.959Z,10.25
2022-10-26T04:40:31.988Z,10.15
2022-10-26T04:41:31.966Z,10.22
2022-10-26T04:42:31.973Z,10.17
2022-10-26T04:43:31.979Z,10.22
2022-10-26T04:44:31.977Z,10.15
2022-10-26T04:45:31.975Z,10.23
2022-10-26T04:46:31.971Z,10.17
2022-10-26T04:47:31.984Z,10.18
2022-10-26T04:48:32.004Z,10.25
2022-10-26T04:49:31.966Z,10.26
2022-10-26T04:50:31.951Z,10.11
2022-10-26T04:51:31.979Z,10.25
2022-10-26T04:52:31.939Z,10.15
2022-10-26T04:53:31.954Z,10.22
2022-10-26T04:54:31.965Z,10.18
2022-10-26T04:55:31.949Z,10.18
2022-10-26T04:56:31.995Z,10.08
2022-10-26T04:57:31.937Z,10.09
2022-10-26T04:58:31.948Z,10.05
2022-10-26T04:59:31.961Z,10.07
2022-10-26T05:00:31.943Z,10.08
2022-10-26T05:01:32.052Z,10.04
2022-10-26T05:02:32.007Z,10.05
2022-10-26T05:03:31.936Z,10.04
2022-10-26T05:04:31.944Z,10.11
2022-10-26T05:05:31.935Z,10.08
2022-10-26T05:06:31.936Z,9.89
2022-10-26T05:07:31.926Z,9.91
2022-10-26T05:08:31.935Z,10.02
2022-10-26T05:09:31.941Z,9.97
2022-10-26T05:10:31.927Z,9.93
2022-10-26T05:11:31.961Z,9.93
2022-10-26T05:12:31.926Z,9.96
2022-10-26T05:13:31.929Z,9.89
2022-10-26T05:14:31.948Z,9.94
2022-10-26T05:15:31.907Z,9.93
2022-10-26T05:16:31.911Z,9.89
2022-10-26T05:17:31.965Z,9.86
2022-10-26T05:18:31.912Z,9.81
2022-10-26T05:19:31.905Z,9.90
2022-10-26T05:20:31.920Z,9.79
2022-10-26T05:21:31.949Z,9.72
2022-10-26T05:22:31.915Z,9.78
2022-10-26T05:23:31.902Z,9.74
2022-10-26T05:24:33.773Z,9.75
2022-10-26T05:25:31.941Z,9.75
2022-10-26T05:26:32.776Z,9.83
2022-10-26T05:27:31.962Z,9.81
2022-10-26T05:28:32.162Z,9.76
2022-10-26T05:29:31.925Z,9.76
2022-10-26T05:30:31.945Z,9.72
2022-10-26T05:31:32.012Z,9.74
2022-10-26T05:32:33.777Z,9.74
2022-10-26T05:33:31.935Z,9.81
2022-10-26T05:34:31.920Z,9.71
2022-10-26T05:35:31.890Z,9.79
2022-10-26T05:36:31.899Z,9.71
2022-10-26T05:37:31.921Z,9.81
2022-10-26T05:38:31.893Z,9.75
2022-10-26T05:39:31.909Z,9.78
2022-10-26T05:40:31.877Z,9.79
2022-10-26T05:41:31.890Z,9.86
2022-10-26T05:42:31.913Z,9.81
2022-10-26T05:43:31.986Z,9.83
2022-10-26T05:44:31.926Z,9.86
2022-10-26T05:45:31.885Z,9.83
2022-10-26T05:46:32.061Z,9.79
2022-10-26T05:47:32.826Z,9.86
2022-10-26T05:48:31.896Z,9.84
2022-10-26T05:49:31.876Z,9.83
2022-10-26T05:50:31.888Z,9.72
2022-10-26T05:51:31.899Z,9.75
2022-10-26T05:52:31.987Z,9.72
2022-10-26T05:57:46.387Z,9.86
2022-10-26T05:58:46.342Z,9.83
2022-10-26T05:59:46.830Z,9.79
2022-10-26T06:00:46.426Z,9.90
2022-10-26T06:01:46.256Z,9.87
2022-10-26T06:02:45.640Z,9.96
2022-10-26T06:03:45.501Z,9.91
2022-10-26T06:04:47.424Z,9.97
2022-10-26T06:05:46.311Z,9.97
2022-10-26T06:06:45.522Z,10.01
2022-10-26T06:07:45.488Z,10.04
2022-10-26T06:08:45.474Z,10.04
2022-10-26T06:09:45.475Z,10.07
2022-10-26T06:10:45.474Z,10.08
2022-10-26T06:11:45.527Z,10.07
2022-10-26T06:12:45.542Z,10.05
2022-10-26T06:13:45.495Z,10.05
2022-10-26T06:14:45.468Z,10.08
2022-10-26T06:15:45.468Z,10.07
2022-10-26T06:16:45.440Z,10.01
2022-10-26T06:17:45.456Z,9.99
2022-10-26T06:18:45.472Z,9.97
2022-10-26T06:19:45.486Z,10.04
2022-10-26T06:20:45.461Z,10.01
2022-10-26T06:21:45.476Z,10.01
2022-10-26T06:22:45.469Z,9.97
2022-10-26T06:23:45.440Z,9.99
2022-10-26T06:24:45.464Z,10.01
2022-10-26T06:25:45.435Z,10.01
2022-10-26T06:26:45.452Z,9.96
2022-10-26T06:27:45.439Z,9.99
2022-10-26T06:28:47.427Z,10.01
2022-10-26T06:29:45.447Z,10.01
2022-10-26T06:30:45.457Z,10.08
2022-10-26T06:31:45.431Z,10.02
2022-10-26T06:32:45.455Z,10.20
2022-10-26T06:33:45.430Z,10.20
2022-10-26T06:34:45.432Z,10.23
2022-10-26T06:35:45.420Z,10.32
2022-10-26T06:36:45.474Z,10.29
2022-10-26T06:37:45.437Z,10.36
2022-10-26T06:38:45.431Z,10.32
2022-10-26T06:39:45.455Z,10.36
2022-10-26T06:40:45.435Z,10.44
2022-10-26T06:41:45.437Z,10.45
2022-10-26T06:42:45.403Z,10.42
2022-10-26T06:43:45.452Z,10.51
2022-10-26T06:44:45.409Z,10.48
2022-10-26T06:45:45.487Z,10.63
2022-10-26T06:46:45.411Z,10.56
2022-10-26T06:47:45.393Z,10.60
2022-10-26T06:48:45.404Z,10.63
2022-10-26T06:49:45.405Z,10.68
2022-10-26T06:50:45.398Z,10.71
2022-10-26T06:51:52.443Z,10.81
2022-10-26T06:52:45.382Z,10.88
2022-10-26T06:53:45.391Z,10.97
2022-10-26T06:54:45.383Z,11.09
2022-10-26T06:55:45.387Z,11.19
2022-10-26T06:56:45.372Z,11.09
2022-10-26T06:57:45.392Z,11.19
2022-10-26T06:58:45.369Z,11.25
2022-10-26T06:59:45.362Z,11.40
2022-10-26T07:00:45.366Z,11.44
2022-10-26T07:01:45.506Z,11.61
2022-10-26T07:02:45.452Z,11.83
2022-10-26T07:03:45.356Z,11.90
2022-10-26T07:04:45.379Z,11.99
2022-10-26T07:05:45.403Z,11.96
2022-10-26T07:06:45.365Z,12.09
2022-10-26T07:07:45.362Z,12.28
2022-10-26T07:08:45.352Z,12.32
2022-10-26T07:09:45.369Z,12.34
2022-10-26T07:10:45.351Z,12.47
2022-10-26T07:11:45.360Z,12.62
2022-10-26T07:12:45.370Z,12.74
2022-10-26T07:13:45.354Z,12.89
2022-10-26T07:14:45.346Z,13.05
2022-10-26T07:15:45.357Z,13.20
2022-10-26T07:16:45.356Z,13.36
2022-10-26T07:17:45.339Z,13.38
2022-10-26T07:18:45.372Z,13.63
2022-10-26T07:19:45.358Z,13.73
2022-10-26T07:20:45.340Z,13.87
2022-10-26T07:21:45.344Z,14.03
2022-10-26T07:22:45.347Z,14.17
2022-10-26T07:23:45.333Z,14.32
2022-10-26T07:24:45.349Z,14.47
2022-10-26T07:25:45.355Z,14.57
2022-10-26T07:26:45.348Z,14.77
2022-10-26T07:27:45.345Z,14.92
2022-10-26T07:28:45.344Z,14.96
2022-10-26T07:29:45.353Z,15.19
2022-10-26T07:30:45.357Z,15.34
2022-10-26T07:31:45.369Z,15.46
2022-10-26T07:32:45.342Z,15.62
2022-10-26T07:33:45.330Z,15.76
2022-10-26T07:34:45.338Z,15.89
2022-10-26T07:35:45.358Z,15.97
2022-10-26T07:36:45.350Z,16.07
2022-10-26T07:37:45.340Z,16.17
2022-10-26T07:38:45.329Z,16.15
2022-10-26T07:39:45.340Z,16.20
2022-10-26T07:40:45.343Z,16.24
2022-10-26T07:41:45.340Z,16.09
2022-10-26T07:42:47.661Z,16.11
2022-10-26T07:43:45.329Z,16.17
2022-10-26T07:44:45.351Z,15.93
2022-10-26T07:45:45.328Z,15.86
2022-10-26T07:46:45.343Z,16.00
2022-10-26T07:47:45.337Z,16.11
2022-10-26T07:48:45.381Z,16.05
2022-10-26T07:49:45.329Z,16.08
2022-10-26T07:50:45.358Z,16.23
2022-10-26T07:51:45.351Z,16.30
2022-10-26T07:52:45.364Z,16.49
2022-10-26T07:53:45.368Z,16.45
2022-10-26T07:54:45.355Z,16.53
2022-10-26T07:55:45.331Z,16.53
2022-10-26T07:56:45.345Z,16.66
2022-10-26T07:57:46.079Z,16.60
2022-10-26T07:58:45.348Z,16.64
2022-10-26T07:59:45.331Z,16.76
2022-10-26T08:00:45.396Z,16.82
2022-10-26T08:01:45.373Z,16.76
2022-10-26T08:02:45.347Z,16.76
2022-10-26T08:03:45.350Z,16.82
2022-10-26T08:04:45.337Z,16.81
2022-10-26T08:05:45.342Z,16.78
2022-10-26T08:06:45.351Z,16.66
2022-10-26T08:07:45.350Z,16.63
2022-10-26T08:08:47.462Z,16.64
2022-10-26T08:09:45.365Z,16.66
2022-10-26T08:10:45.360Z,16.61
2022-10-26T08:11:45.347Z,16.48
2022-10-26T08:12:45.355Z,16.58
2022-10-26T08:13:45.434Z,16.56
2022-10-26T08:14:45.365Z,16.50
2022-10-26T08:15:46.357Z,16.56
2022-10-26T08:16:45.363Z,16.61
2022-10-26T08:17:45.380Z,16.49
2022-10-26T08:18:45.393Z,16.43
2022-10-26T08:19:45.360Z,16.41
2022-10-26T08:20:45.386Z,16.39
2022-10-26T08:21:45.372Z,16.49
2022-10-26T08:22:45.365Z,16.35
2022-10-26T08:23:45.364Z,16.33
2022-10-26T08:24:45.389Z,16.35
2022-10-26T08:25:45.376Z,16.27
2022-10-26T08:26:45.373Z,16.23
2022-10-26T08:27:45.371Z,16.11
2022-10-26T08:28:45.383Z,16.07
2022-10-26T08:29:45.371Z,16.04
2022-10-26T08:30:45.396Z,16.00
2022-10-26T08:31:45.386Z,16.05
2022-10-26T08:32:45.386Z,15.96
2022-10-26T08:33:45.417Z,16.02
2022-10-26T08:34:45.386Z,16.11
2022-10-26T08:35:45.381Z,16.09
2022-10-26T08:36:45.404Z,16.23
2022-10-26T08:37:45.393Z,16.09
2022-10-26T08:38:45.496Z,15.96
2022-10-26T08:39:48.100Z,15.87
2022-10-26T08:40:45.389Z,15.93
2022-10-26T08:41:45.407Z,16.00
2022-10-26T08:42:45.391Z,16.04
2022-10-26T08:43:45.390Z,16.02
2022-10-26T08:44:45.408Z,16.02
2022-10-26T08:45:45.418Z,16.00
2022-10-26T08:46:45.447Z,15.96
2022-10-26T08:47:45.404Z,15.83
2022-10-26T08:48:45.416Z,15.76
2022-10-26T08:49:45.409Z,15.65
2022-10-26T08:50:45.413Z,15.49
2022-10-26T08:51:45.409Z,15.38
2022-10-26T08:52:45.413Z,15.34
2022-10-26T08:53:45.425Z,15.39
2022-10-26T08:54:45.417Z,15.35
2022-10-26T08:55:45.416Z,15.43
2022-10-26T08:56:48.548Z,15.49
2022-10-26T08:57:45.427Z,15.57
2022-10-26T08:58:45.410Z,15.57
2022-10-26T08:59:45.407Z,15.43
2022-10-26T09:00:45.419Z,15.49
2022-10-26T09:01:45.517Z,15.56
2022-10-26T09:02:45.460Z,15.51
2022-10-26T09:03:45.424Z,15.56
2022-10-26T09:04:45.425Z,15.57
2022-10-26T09:05:45.413Z,15.68
2022-10-26T09:06:45.418Z,15.68
2022-10-26T09:07:45.414Z,15.75
2022-10-26T09:08:45.433Z,15.84
2022-10-26T09:09:45.415Z,15.93
2022-10-26T09:10:45.429Z,16.00
2022-10-26T09:11:45.434Z,16.05
2022-10-26T09:12:45.478Z,16.05
2022-10-26T09:13:45.428Z,16.07
2022-10-26T09:14:45.443Z,16.14
2022-10-26T09:15:45.429Z,16.11
2022-10-26T09:16:45.455Z,16.21
2022-10-26T09:17:45.423Z,16.05
2022-10-26T09:19:45.423Z,15.75
2022-10-26T09:20:45.427Z,15.78
2022-10-26T09:21:45.425Z,15.89
2022-10-26T09:22:45.441Z,15.93
2022-10-26T09:23:45.429Z,15.93
2022-10-26T09:24:45.454Z,15.83
2022-10-26T09:25:45.447Z,16.00
2022-10-26T09:26:45.448Z,15.83
2022-10-26T09:27:45.433Z,15.87
2022-10-26T09:28:45.445Z,15.84
2022-10-26T09:29:45.457Z,15.84
2022-10-26T09:30:45.451Z,15.84
2022-10-26T09:31:45.451Z,15.80
2022-10-26T09:32:45.438Z,15.83
2022-10-26T09:33:45.450Z,15.90
2022-10-26T09:34:45.462Z,15.89
2022-10-26T09:35:45.470Z,15.94
2022-10-26T09:36:45.436Z,15.97
2022-10-26T09:37:45.442Z,15.94
2022-10-26T09:38:45.448Z,16.00
2022-10-26T09:39:45.453Z,16.04
2022-10-26T09:40:45.462Z,16.08
2022-10-26T09:41:45.459Z,16.02
2022-10-26T09:42:45.453Z,16.04
2022-10-26T09:43:45.553Z,16.08
2022-10-26T09:44:45.450Z,16.27
2022-10-26T09:45:45.463Z,16.21
2022-10-26T09:46:45.460Z,16.27
2022-10-26T09:47:45.466Z,16.20
2022-10-26T09:48:45.461Z,16.14
2022-10-26T09:49:45.459Z,16.23
2022-10-26T09:50:45.451Z,16.34
2022-10-26T09:51:45.464Z,16.35
2022-10-26T09:52:45.475Z,16.48
2022-10-26T09:53:45.448Z,16.43
2022-10-26T09:54:45.463Z,16.48
2022-10-26T09:55:45.449Z,16.61
2022-10-26T09:56:45.489Z,16.49
2022-10-26T09:57:45.455Z,16.53
2022-10-26T09:58:45.458Z,16.56
2022-10-26T09:59:45.454Z,16.66
2022-10-26T10:00:45.461Z,16.68
2022-10-26T10:01:45.587Z,16.73
2022-10-26T10:02:45.539Z,16.82
2022-10-26T10:03:45.459Z,16.85
2022-10-26T10:04:45.482Z,16.86
2022-10-26T10:05:51.377Z,16.88
2022-10-26T10:06:45.471Z,16.98
2022-10-26T10:07:45.473Z,17.07
2022-10-26T10:08:45.509Z,17.15
2022-10-26T10:09:45.468Z,17.14
2022-10-26T10:10:45.479Z,17.22
2022-10-26T10:11:45.488Z,17.28
2022-10-26T10:12:45.471Z,17.38
2022-10-26T10:13:45.486Z,17.49
2022-10-26T10:14:45.472Z,17.55
2022-10-26T10:15:45.481Z,17.68
2022-10-26T10:16:45.502Z,17.75
2022-10-26T10:17:47.379Z,17.81
2022-10-26T10:18:45.493Z,17.96
2022-10-26T10:19:45.494Z,18.08
2022-10-26T10:20:45.513Z,18.35
2022-10-26T10:21:45.497Z,18.36
2022-10-26T10:22:45.512Z,18.45
2022-10-26T10:23:45.489Z,18.58
2022-10-26T10:24:45.496Z,18.55
2022-10-26T10:25:45.509Z,18.65
2022-10-26T10:26:45.518Z,18.69
2022-10-26T10:27:45.513Z,18.82
2022-10-26T10:28:45.517Z,18.81
2022-10-26T10:29:45.512Z,18.82
2022-10-26T10:30:45.531Z,18.80
2022-10-26T10:31:45.537Z,18.82
2022-10-26T10:32:45.561Z,18.78
2022-10-26T10:33:45.536Z,18.91
2022-10-26T10:34:45.540Z,18.87
2022-10-26T10:35:46.380Z,18.84
2022-10-26T10:36:45.535Z,18.73
2022-10-26T10:37:45.540Z,18.81
2022-10-26T10:38:45.572Z,18.76
2022-10-26T10:39:45.547Z,18.60
2022-10-26T10:40:45.564Z,18.48
2022-10-26T10:41:45.556Z,18.45
2022-10-26T10:42:45.557Z,18.48
2022-10-26T10:43:45.566Z,18.44
2022-10-26T10:44:45.571Z,18.36
2022-10-26T10:45:45.567Z,18.39
2022-10-26T10:46:45.573Z,18.32
2022-10-26T10:47:45.571Z,18.25
2022-10-26T10:48:45.567Z,18.21
2022-10-26T10:49:45.583Z,18.30
2022-10-26T10:50:45.574Z,18.39
2022-10-26T10:51:45.583Z,18.37
2022-10-26T10:52:45.588Z,18.52
2022-10-26T10:53:45.584Z,18.52
2022-10-26T10:54:45.602Z,18.73
2022-10-26T10:55:45.623Z,18.90
2022-10-26T10:56:45.586Z,19.21
2022-10-26T10:57:45.595Z,19.32
2022-10-26T10:58:45.590Z,19.62
2022-10-26T10:59:45.614Z,19.92
2022-10-26T11:00:45.601Z,20.14
2022-10-26T11:01:45.637Z,20.31
2022-10-26T11:02:45.632Z,20.61
2022-10-26T11:03:45.606Z,20.64
2022-10-26T11:04:45.603Z,20.87
2022-10-26T11:05:45.665Z,21.13
2022-10-26T11:06:45.612Z,21.35
2022-10-26T11:07:45.622Z,21.43
2022-10-26T11:08:45.620Z,21.61
2022-10-26T11:09:45.661Z,21.84
2022-10-26T11:10:45.640Z,21.83
2022-10-26T11:11:45.982Z,21.96
2022-10-26T11:12:45.634Z,22.12
2022-10-26T11:13:45.652Z,22.14
2022-10-26T11:14:47.720Z,22.20
2022-10-26T11:15:45.663Z,22.24
2022-10-26T11:16:45.650Z,22.43
2022-10-26T11:17:45.680Z,22.76
2022-10-26T11:18:45.674Z,22.80
2022-10-26T11:19:45.674Z,22.98
2022-10-26T11:20:45.713Z,22.94
2022-10-26T11:21:45.699Z,22.95
2022-10-26T11:22:45.721Z,22.91
2022-10-26T11:23:45.696Z,22.86
2022-10-26T11:24:45.697Z,22.82
2022-10-26T11:25:45.693Z,23.09
2022-10-26T11:26:46.391Z,23.16
2022-10-26T11:27:45.721Z,23.16
2022-10-26T11:28:45.726Z,23.05
2022-10-26T11:29:48.702Z,22.94
2022-10-26T11:30:45.709Z,22.85
2022-10-26T11:31:45.715Z,22.72
2022-10-26T11:32:45.726Z,22.77
2022-10-26T11:33:45.780Z,22.43
2022-10-26T11:34:45.734Z,22.27
2022-10-26T11:35:45.730Z,22.28
2022-10-26T11:36:45.741Z,22.18
2022-10-26T11:37:45.767Z,22.18
2022-10-26T11:38:55.943Z,21.80
2022-10-26T11:39:45.759Z,21.56
2022-10-26T11:40:45.758Z,21.40
2022-10-26T11:41:45.789Z,21.38
2022-10-26T11:42:45.751Z,21.42
2022-10-26T11:43:45.771Z,21.34
2022-10-26T11:44:50.465Z,21.31
2022-10-26T11:45:45.884Z,21.21
2022-10-26T11:46:45.777Z,21.19
2022-10-26T11:47:45.812Z,21.43
2022-10-26T11:48:45.804Z,21.74
2022-10-26T11:49:45.775Z,21.88
2022-10-26T11:50:45.817Z,22.20
2022-10-26T11:51:45.809Z,22.21
2022-10-26T11:52:45.795Z,22.22
2022-10-26T11:53:45.793Z,22.24
2022-10-26T11:54:45.822Z,22.00
2022-10-26T11:55:45.816Z,22.06
2022-10-26T11:56:45.816Z,22.05
2022-10-26T11:57:45.813Z,22.07
2022-10-26T11:58:45.817Z,22.14
2022-10-26T11:59:45.842Z,22.02
2022-10-26T12:00:45.824Z,21.72
2022-10-26T12:01:45.873Z,21.65
2022-10-26T12:02:45.833Z,21.37
2022-10-26T12:03:45.827Z,21.44
2022-10-26T12:04:45.853Z,21.28
2022-10-26T12:05:45.843Z,21.29
2022-10-26T12:06:45.832Z,21.19
2022-10-26T12:07:45.832Z,21.13
2022-10-26T12:08:45.839Z,21.16
2022-10-26T12:09:45.849Z,20.98
2022-10-26T12:10:45.870Z,20.88
2022-10-26T12:11:45.861Z,20.76
2022-10-26T12:12:45.850Z,20.80
2022-10-26T12:13:45.876Z,20.87
2022-10-26T12:14:45.857Z,20.84
2022-10-26T12:16:02.320Z,20.82
2022-10-26T12:16:45.859Z,20.84
2022-10-26T12:17:45.865Z,20.87
2022-10-26T12:18:59.996Z,20.88
2022-10-26T12:19:45.865Z,20.77
2022-10-26T12:20:45.899Z,20.84
2022-10-26T12:21:45.880Z,20.92
2022-10-26T12:22:45.888Z,20.84
2022-10-26T12:23:51.457Z,20.87
2022-10-26T12:24:45.906Z,20.89
2022-10-26T12:25:45.892Z,20.70
2022-10-26T12:26:45.909Z,20.70
2022-10-26T12:27:45.895Z,20.69
2022-10-26T12:28:47.235Z,20.70
2022-10-26T12:29:45.896Z,20.59
2022-10-26T12:30:45.901Z,20.66
2022-10-26T12:31:45.930Z,20.70
2022-10-26T12:32:45.969Z,20.74
2022-10-26T12:33:45.902Z,20.62
2022-10-26T12:34:45.923Z,20.72
2022-10-26T12:35:45.924Z,20.70
2022-10-26T12:36:45.926Z,20.79
2022-10-26T12:37:45.926Z,20.79
2022-10-26T12:38:45.931Z,20.76
2022-10-26T12:39:45.929Z,20.76
2022-10-26T12:40:45.926Z,20.85
2022-10-26T12:41:45.955Z,20.84
2022-10-26T12:42:45.944Z,20.84
2022-10-26T12:43:45.945Z,20.99
2022-10-26T12:44:45.990Z,20.82
2022-10-26T12:45:45.948Z,20.87
2022-10-26T12:46:45.945Z,20.79
2022-10-26T12:47:45.953Z,20.76
2022-10-26T12:48:45.942Z,20.72
2022-10-26T12:49:45.982Z,20.69
2022-10-26T12:50:45.958Z,20.72
2022-10-26T12:51:45.962Z,20.70
2022-10-26T12:52:45.982Z,20.72
2022-10-26T12:53:46.212Z,20.70
2022-10-26T12:54:45.980Z,20.59
2022-10-26T12:55:45.972Z,20.62
2022-10-26T12:56:45.975Z,20.57
2022-10-26T12:57:45.994Z,20.74
2022-10-26T12:58:45.999Z,20.70
2022-10-26T12:59:45.996Z,20.61
2022-10-26T13:00:45.986Z,20.70
2022-10-26T13:01:46.107Z,20.62